KEMK

East Breaks

East Breaks, Texas, USA
METAR KEMK 151435Z AUTO 25009KT 10SM FEW025 FEW032 FEW043 30/24 A3004 RMK A01
Observed Flight Rules
Aug-15 @ 14:35 UTC (25 minutes ago) Visual Flight Rules
Wind Visibility Clouds
250° at 9 knots 10 miles
  • Few at 2,500' AGL
  • Few at 3,200' AGL
  • Few at 4,300' AGL
Temperatures Readings
Current 30°C / 86°F
Dewpoint 24°C / 75°F
Humidity 70%
Altimeter 30.04" Hg
Pressure 1017 hPa
Elevation 26
METAR KEMK 151435Z AUTO 25009KT 10SM FEW025 FEW032 FEW043 30/24 A3004 RMK A01
Observed Flight Rules
Aug-15 @ 14:35 UTC
(25 minutes ago)
VFR
Wind Visibility
250° at 9 knots 10 miles
Clouds
  • Few at 2,500' AGL
  • Few at 3,200' AGL
  • Few at 4,300' AGL
Temperature Dewpoint
30°C / 86°F 24°C / 75°F
Humidity Altimeter Pressure
70% 30.04" Hg 1017 hPa